Time;durP1;ratioP1;P1;durP2;ratioP2;P2;SDS_P1;SDS_P2;PMS_P1;PMS_P2;Temp;Humidity;BMP_temperature;BMP_pressure;BME280_temperature;BME280_humidity;BME280_pressure;Samples;Min_cycle;Max_cycle;Signal;HPM_P1;HPM_P2
2022/02/11 00:01:19;;;;;;;3.15;0.95;;;3.60;99.90;;;;;;5104930;28;20032;-66
2022/02/11 00:04:54;;;;;;;2.10;0.70;;;3.50;99.90;;;;;;5106681;28;20070;-66
2022/02/11 00:08:00;;;;;;;5.40;0.95;;;3.50;99.90;;;;;;5099986;28;20068;-66
2022/02/11 00:11:25;;;;;;;1.45;0.75;;;3.50;99.90;;;;;;5107135;28;20043;-66
2022/02/11 00:15:04;;;;;;;3.70;0.85;;;3.40;99.90;;;;;;5110787;28;20448;-66
2022/02/11 00:18:20;;;;;;;3.08;1.10;;;3.30;99.90;;;;;;5104773;28;20534;-66
2022/02/11 00:21:44;;;;;;;2.72;0.60;;;3.30;99.90;;;;;;5106130;28;20047;-66
2022/02/11 00:25:09;;;;;;;1.98;0.70;;;3.30;99.90;;;;;;5090227;28;20067;-66
2022/02/11 00:29:38;;;;;;;1.98;0.85;;;3.30;99.90;;;;;;5107450;28;20499;-66
2022/02/11 00:32:27;;;;;;;4.72;0.90;;;3.20;99.90;;;;;;5106229;28;20518;-66
2022/02/11 00:35:54;;;;;;;5.20;0.82;;;3.20;99.90;;;;;;5103690;28;20036;-66
2022/02/11 00:39:43;;;;;;;3.90;1.35;;;3.20;99.90;;;;;;5104442;28;20530;-65
2022/02/11 01:02:27;;;;;;;4.30;0.85;;;3.00;99.90;;;;;;5104364;28;20441;-66
2022/02/11 01:05:46;;;;;;;3.58;1.05;;;3.00;99.90;;;;;;5105698;28;20027;-66
2022/02/11 01:09:13;;;;;;;4.38;1.10;;;3.00;99.90;;;;;;5103965;28;20036;-66
2022/02/11 01:12:38;;;;;;;4.40;0.90;;;3.00;99.90;;;;;;5101032;28;20051;-66
2022/02/11 01:16:07;;;;;;;5.82;1.10;;;3.00;99.90;;;;;;5103544;28;20120;-66
2022/02/11 01:19:35;;;;;;;1.52;0.95;;;3.00;99.90;;;;;;5106825;28;20036;-66
2022/02/11 01:23:11;;;;;;;2.92;0.93;;;2.90;99.90;;;;;;5103428;28;20044;-66
2022/02/11 01:33:17;;;;;;;6.93;1.52;;;3.00;99.90;;;;;;5068168;28;20302;-66
2022/02/11 01:36:53;;;;;;;2.00;1.08;;;2.90;99.90;;;;;;5087360;28;20068;-66
2022/02/11 01:47:02;;;;;;;4.65;1.50;;;2.90;99.90;;;;;;5103262;28;20028;-66
2022/02/11 01:50:13;;;;;;;4.05;1.63;;;2.90;99.90;;;;;;5100365;28;20036;-66
2022/02/11 02:03:52;;;;;;;5.60;2.05;;;2.90;99.90;;;;;;5101990;28;20056;-66
2022/02/11 02:17:43;;;;;;;6.93;2.00;;;2.80;99.90;;;;;;5096183;28;20088;-66
2022/02/11 02:31:11;;;;;;;5.40;2.10;;;2.80;99.90;;;;;;5092566;28;20047;-66
2022/02/11 02:38:00;;;;;;;4.30;1.70;;;2.80;99.90;;;;;;5094508;28;20554;-67
2022/02/11 02:50:35;;;;;;;3.75;1.80;;;2.70;99.90;;;;;;5092267;28;20414;-66
2022/02/11 02:57:23;;;;;;;5.00;2.30;;;2.70;99.90;;;;;;5107390;28;20076;-66
2022/02/11 03:31:32;;;;;;;5.40;2.47;;;2.80;99.90;;;;;;5103040;28;20498;-66
2022/02/11 03:35:00;;;;;;;5.53;2.20;;;2.90;99.90;;;;;;5091460;28;20423;-66
2022/02/11 03:49:04;;;;;;;7.13;2.95;;;3.10;99.90;;;;;;5106549;28;20092;-66
2022/02/11 03:55:41;;;;;;;7.88;3.42;;;3.10;99.90;;;;;;5090936;28;20032;-66
2022/02/11 03:58:58;;;;;;;6.15;3.25;;;3.10;99.90;;;;;;5106259;28;20403;-65
2022/02/11 04:53:55;;;;;;;9.25;4.03;;;2.90;99.90;;;;;;5105210;28;20122;-52
2022/02/11 04:56:42;;;;;;;11.32;4.63;;;2.90;99.90;;;;;;5089710;28;20075;-47
2022/02/11 05:00:03;;;;;;;9.68;5.20;;;2.90;99.90;;;;;;5105020;28;20036;-49
2022/02/11 05:03:29;;;;;;;11.95;4.32;;;3.00;99.90;;;;;;5102549;28;20514;-48
2022/02/11 05:06:54;;;;;;;7.53;4.05;;;3.10;99.90;;;;;;5102384;28;20031;-49
2022/02/11 05:10:21;;;;;;;10.15;4.40;;;3.10;99.90;;;;;;5089756;28;20499;-49
2022/02/11 05:13:45;;;;;;;7.90;4.10;;;3.20;99.90;;;;;;5093623;28;20043;-51
2022/02/11 05:17:10;;;;;;;10.80;4.75;;;3.30;99.90;;;;;;5088959;28;20036;-48
2022/02/11 05:20:36;;;;;;;6.68;4.25;;;3.30;99.90;;;;;;5104970;28;20027;-48
2022/02/11 05:24:02;;;;;;;9.55;4.85;;;3.30;99.90;;;;;;5109236;28;20104;-50
2022/02/11 05:27:26;;;;;;;8.60;4.80;;;3.40;99.90;;;;;;5109048;28;20415;-47
2022/02/11 05:30:52;;;;;;;9.50;4.85;;;3.40;99.90;;;;;;5102189;28;20035;-49
2022/02/11 05:34:17;;;;;;;7.68;4.32;;;3.40;99.90;;;;;;5102561;28;20612;-46
2022/02/11 05:37:43;;;;;;;7.68;4.05;;;3.50;99.90;;;;;;5094448;28;20035;-51
2022/02/11 05:41:10;;;;;;;8.70;3.85;;;3.50;99.90;;;;;;5103592;28;20031;-50
2022/02/11 05:44:33;;;;;;;6.95;3.90;;;3.60;99.90;;;;;;5100336;28;20046;-53
2022/02/11 05:47:59;;;;;;;14.15;4.95;;;3.60;99.90;;;;;;5089119;28;20553;-48
2022/02/11 05:51:24;;;;;;;12.25;5.72;;;3.60;99.90;;;;;;5106439;28;20081;-52
2022/02/11 05:54:49;;;;;;;9.43;4.57;;;3.70;99.90;;;;;;5101657;28;20049;-48
2022/02/11 05:58:15;;;;;;;10.30;4.78;;;3.80;99.90;;;;;;5091386;28;20069;-49
2022/02/11 06:01:40;;;;;;;9.30;4.28;;;3.80;99.90;;;;;;5102692;28;20042;-51
2022/02/11 06:05:06;;;;;;;10.05;5.22;;;3.80;99.90;;;;;;5103412;28;20028;-49
2022/02/11 06:08:31;;;;;;;10.50;4.97;;;3.80;99.90;;;;;;5099521;28;20563;-52
2022/02/11 06:11:56;;;;;;;9.27;5.20;;;3.80;99.90;;;;;;5107053;28;20035;-51
2022/02/11 06:15:23;;;;;;;10.38;5.45;;;3.70;99.90;;;;;;5102797;28;20123;-49
2022/02/11 06:18:48;;;;;;;10.68;5.55;;;3.70;99.90;;;;;;5099433;28;20115;-51
2022/02/11 06:21:33;;;;;;;13.27;5.90;;;3.70;99.90;;;;;;5101658;28;20051;-49
2022/02/11 06:23:58;;;;;;;10.63;5.50;;;3.70;99.90;;;;;;5107673;28;20273;-52
2022/02/11 06:26:24;;;;;;;10.43;4.82;;;3.60;99.90;;;;;;5106004;28;20047;-51
2022/02/11 06:28:51;;;;;;;10.90;5.57;;;3.70;99.90;;;;;;5107844;28;20030;-48
2022/02/11 06:31:17;;;;;;;11.88;6.28;;;3.70;99.90;;;;;;5092854;28;20442;-48
2022/02/11 06:33:43;;;;;;;10.73;5.63;;;3.70;99.90;;;;;;5107303;28;20027;-50
2022/02/11 06:36:08;;;;;;;11.70;5.40;;;3.70;99.90;;;;;;5106064;28;20474;-52
2022/02/11 06:38:34;;;;;;;9.95;4.57;;;3.80;99.90;;;;;;5108374;28;20031;-50
2022/02/11 06:41:00;;;;;;;14.68;6.78;;;3.80;99.90;;;;;;5106433;28;20486;-49
2022/02/11 06:43:25;;;;;;;9.27;4.95;;;3.90;99.90;;;;;;5106657;28;20031;-51
2022/02/11 06:45:51;;;;;;;13.93;6.25;;;3.90;99.90;;;;;;5106721;28;20031;-53
2022/02/11 06:48:21;;;;;;;13.25;6.43;;;3.90;99.90;;;;;;5108580;28;20034;-49
2022/02/11 06:50:47;;;;;;;12.10;5.38;;;4.00;99.90;;;;;;5106354;28;20498;-47
2022/02/11 06:53:14;;;;;;;10.70;5.75;;;3.90;99.90;;;;;;5109972;28;20078;-49
2022/02/11 06:55:40;;;;;;;11.48;5.82;;;4.00;99.90;;;;;;5110356;28;20036;-48
2022/02/11 06:58:06;;;;;;;9.55;5.28;;;4.00;99.90;;;;;;5112419;28;20451;-47
2022/02/11 07:00:32;;;;;;;14.23;5.15;;;4.00;99.90;;;;;;5110093;28;20313;-50
2022/02/11 07:02:57;;;;;;;13.23;5.07;;;4.00;99.90;;;;;;5112647;28;20118;-50
2022/02/11 07:05:25;;;;;;;6.75;4.20;;;4.00;99.90;;;;;;5109895;28;20027;-49
2022/02/11 07:07:51;;;;;;;8.15;4.30;;;4.00;99.90;;;;;;5111924;28;20061;-53
2022/02/11 07:10:16;;;;;;;9.73;3.58;;;4.10;99.90;;;;;;5110027;28;20024;-48
2022/02/11 07:12:42;;;;;;;7.95;3.55;;;4.10;99.90;;;;;;5111839;28;20027;-52
2022/02/11 07:15:08;;;;;;;16.20;4.53;;;4.10;99.90;;;;;;5109940;28;20455;-47
2022/02/11 07:17:34;;;;;;;5.90;3.20;;;4.10;99.90;;;;;;5111888;28;20028;-46
2022/02/11 07:20:00;;;;;;;8.65;3.75;;;4.20;99.90;;;;;;5109679;28;20028;-47
2022/02/11 07:22:34;;;;;;;12.43;3.10;;;4.10;99.90;;;;;;5111954;28;20035;-49
2022/02/11 07:25:03;;;;;;;10.30;3.17;;;4.20;99.90;;;;;;5091821;28;20024;-51
2022/02/11 07:27:28;;;;;;;9.65;3.38;;;4.20;99.90;;;;;;5111874;28;20043;-49
2022/02/11 07:29:54;;;;;;;8.43;2.70;;;4.20;99.90;;;;;;5109576;28;20510;-50
2022/02/11 07:32:20;;;;;;;9.90;3.60;;;4.30;99.90;;;;;;5111690;28;20031;-48
2022/02/11 07:34:45;;;;;;;8.95;2.72;;;4.30;99.90;;;;;;5109358;28;20088;-48
2022/02/11 07:37:11;;;;;;;9.23;3.70;;;4.40;99.90;;;;;;5111857;28;20027;-51
2022/02/11 07:39:37;;;;;;;6.28;3.33;;;4.50;99.90;;;;;;5111250;28;20034;-49
2022/02/11 07:42:03;;;;;;;6.13;2.78;;;4.50;99.90;;;;;;5104691;28;20027;-47
2022/02/11 07:44:29;;;;;;;8.98;2.35;;;4.50;99.90;;;;;;5111179;28;20487;-52
2022/02/11 07:46:54;;;;;;;8.05;2.92;;;4.60;99.90;;;;;;5090836;28;20496;-51
2022/02/11 07:49:20;;;;;;;8.88;3.53;;;4.60;99.90;;;;;;5110563;28;20031;-51
2022/02/11 07:51:46;;;;;;;16.10;3.72;;;4.60;99.90;;;;;;5109129;28;20494;-49
2022/02/11 07:54:12;;;;;;;11.75;4.13;;;4.50;99.90;;;;;;5111312;28;20027;-47
2022/02/11 07:56:38;;;;;;;9.32;3.85;;;4.50;99.90;;;;;;5092945;28;20027;-52
2022/02/11 07:59:04;;;;;;;7.82;3.15;;;4.60;99.90;;;;;;5110696;28;20106;-49
2022/02/11 08:01:29;;;;;;;10.75;3.38;;;4.60;99.90;;;;;;5109065;28;20119;-53
2022/02/11 08:03:56;;;;;;;8.32;3.47;;;4.50;99.90;;;;;;5110169;28;20428;-48
2022/02/11 08:06:21;;;;;;;6.85;3.67;;;4.60;99.90;;;;;;5094952;28;20291;-47
2022/02/11 08:08:47;;;;;;;9.00;3.55;;;4.60;99.90;;;;;;5109897;28;20034;-51
2022/02/11 08:11:12;;;;;;;10.60;3.75;;;4.70;99.90;;;;;;5108983;28;20035;-47
2022/02/11 08:13:38;;;;;;;10.07;3.80;;;4.70;99.90;;;;;;5110579;28;20031;-48
2022/02/11 08:16:05;;;;;;;9.02;3.90;;;4.80;99.90;;;;;;5097611;28;20040;-49
2022/02/11 08:18:31;;;;;;;8.57;4.10;;;4.80;99.90;;;;;;5110390;28;20030;-49
2022/02/11 08:20:56;;;;;;;11.02;4.45;;;4.90;99.90;;;;;;5108499;28;20139;-46
2022/02/11 08:23:24;;;;;;;6.22;3.60;;;4.90;99.90;;;;;;5092317;28;20027;-46
2022/02/11 08:25:49;;;;;;;9.95;3.80;;;4.90;99.90;;;;;;5108290;28;20114;-48
2022/02/11 08:28:15;;;;;;;6.97;3.90;;;5.00;99.90;;;;;;5110538;28;20055;-49
2022/02/11 08:30:42;;;;;;;10.20;4.53;;;5.00;99.90;;;;;;5108333;28;20066;-49
2022/02/11 08:33:07;;;;;;;12.20;4.97;;;5.00;99.90;;;;;;5110095;28;20032;-46
2022/02/11 08:35:33;;;;;;;10.10;4.05;;;5.00;99.90;;;;;;5108422;28;20035;-49
2022/02/11 08:37:59;;;;;;;10.02;4.40;;;5.00;99.90;;;;;;5110229;28;20391;-47
2022/02/11 08:40:24;;;;;;;8.77;3.63;;;5.00;99.90;;;;;;5108356;28;20440;-49
2022/02/11 08:42:51;;;;;;;9.65;5.10;;;4.90;99.90;;;;;;5104948;28;20110;-48
2022/02/11 08:45:17;;;;;;;9.73;4.32;;;4.90;99.90;;;;;;5108156;28;20023;-47
2022/02/11 08:47:42;;;;;;;7.75;4.38;;;4.90;99.90;;;;;;5110471;28;20568;-48
2022/02/11 08:50:14;;;;;;;9.63;4.90;;;4.90;99.90;;;;;;5107735;28;20024;-46
2022/02/11 08:52:40;;;;;;;7.72;4.63;;;4.90;99.90;;;;;;5110040;28;20053;-48
2022/02/11 08:55:06;;;;;;;7.95;4.95;;;4.80;99.90;;;;;;5108112;28;20023;-49
2022/02/11 08:57:32;;;;;;;8.88;4.55;;;4.80;99.90;;;;;;5109792;28;20372;-50
2022/02/11 09:00:00;;;;;;;9.38;4.32;;;4.90;99.90;;;;;;5108046;28;20030;-50
2022/02/11 09:02:26;;;;;;;9.18;4.30;;;4.90;99.90;;;;;;5110210;28;20034;-47
2022/02/11 09:04:53;;;;;;;11.48;4.43;;;4.90;99.90;;;;;;5107548;28;20031;-47
2022/02/11 09:07:19;;;;;;;13.60;4.60;;;4.90;99.90;;;;;;5110065;28;20039;-51
2022/02/11 09:09:44;;;;;;;12.52;5.25;;;4.90;99.90;;;;;;5107922;28;20483;-51
2022/02/11 09:12:10;;;;;;;11.70;4.65;;;4.90;99.90;;;;;;5109728;28;20035;-52
2022/02/11 09:14:35;;;;;;;9.05;3.80;;;4.80;99.90;;;;;;5109405;28;20028;-52
2022/02/11 09:17:01;;;;;;;9.43;4.85;;;4.80;99.90;;;;;;5107534;28;20024;-49
2022/02/11 09:19:26;;;;;;;8.70;4.63;;;4.80;99.90;;;;;;5109507;28;20019;-51
2022/02/11 09:21:52;;;;;;;11.68;4.68;;;4.80;99.90;;;;;;5089142;28;20497;-49
2022/02/11 09:24:17;;;;;;;8.13;4.55;;;4.80;99.90;;;;;;5108851;28;20395;-51
2022/02/11 09:26:43;;;;;;;8.88;3.85;;;4.80;99.90;;;;;;5107376;28;20023;-51
2022/02/11 09:29:09;;;;;;;6.13;3.50;;;4.80;99.90;;;;;;5109351;28;20039;-48
2022/02/11 09:31:34;;;;;;;8.73;4.13;;;4.90;99.90;;;;;;5091632;28;20067;-50
2022/02/11 09:34:04;;;;;;;7.57;3.80;;;5.10;99.90;;;;;;5108498;28;20077;-49
2022/02/11 09:36:34;;;;;;;6.32;3.10;;;5.30;99.90;;;;;;5107531;28;20027;-48
2022/02/11 09:39:03;;;;;;;13.23;4.07;;;5.40;99.90;;;;;;5109359;28;20044;-46
2022/02/11 09:41:29;;;;;;;6.05;3.33;;;5.60;99.90;;;;;;5091673;28;20024;-50
2022/02/11 09:43:56;;;;;;;8.55;3.03;;;5.70;99.90;;;;;;5109240;28;20107;-52
2022/02/11 09:46:22;;;;;;;5.18;2.92;;;5.90;99.90;;;;;;5107389;28;20390;-47
2022/02/11 09:48:47;;;;;;;6.80;2.80;;;6.20;99.90;;;;;;5108827;28;20118;-48
2022/02/11 09:51:13;;;;;;;5.13;2.70;;;6.40;99.90;;;;;;5094654;28;20621;-49
2022/02/11 09:53:39;;;;;;;6.72;3.22;;;6.60;99.90;;;;;;5108209;28;20407;-49
2022/02/11 09:56:05;;;;;;;4.25;3.10;;;6.60;99.90;;;;;;5107582;28;20030;-51
2022/02/11 09:58:31;;;;;;;4.97;3.35;;;6.70;99.90;;;;;;5108765;28;20053;-47
2022/02/11 10:00:57;;;;;;;6.35;2.50;;;6.80;99.90;;;;;;5106848;28;20091;-50
2022/02/11 10:03:30;;;;;;;7.43;2.70;;;6.80;99.90;;;;;;5108986;28;20032;-47
2022/02/11 10:05:57;;;;;;;12.25;4.05;;;6.90;99.90;;;;;;5107215;28;20406;-52
2022/02/11 10:08:24;;;;;;;5.05;2.75;;;6.90;99.90;;;;;;5090478;28;20518;-49
2022/02/11 10:10:52;;;;;;;7.15;3.75;;;7.00;99.90;;;;;;5106722;28;20407;-69
2022/02/11 10:13:28;;;;;;;6.30;3.15;;;7.20;99.90;;;;;;5108977;28;20491;-69
2022/02/11 10:15:56;;;;;;;;;;;7.50;99.90;;;;;;5097208;28;20493;-69
2022/02/11 10:18:26;;;;;;;8.27;3.45;;;7.90;99.90;;;;;;5108517;28;19908;-69
2022/02/11 10:21:00;;;;;;;6.75;3.60;;;8.30;99.90;;;;;;5096191;28;20388;-69
2022/02/11 10:23:47;;;;;;;5.68;3.50;;;8.30;99.90;;;;;;5088336;28;20471;-69
2022/02/11 10:26:15;;;;;;;5.72;3.38;;;8.40;99.90;;;;;;5098953;28;20027;-69
2022/02/11 10:28:48;;;;;;;6.47;3.72;;;8.50;99.90;;;;;;5111201;28;20106;-69
2022/02/11 10:31:19;;;;;;;7.88;3.25;;;8.60;99.90;;;;;;5103370;28;20084;-70
2022/02/11 10:34:03;;;;;;;8.50;3.25;;;8.40;99.90;;;;;;5092366;28;20055;-69
2022/02/11 10:36:40;;;;;;;4.50;2.90;;;8.20;99.90;;;;;;5105151;28;20487;-69
2022/02/11 10:39:10;;;;;;;6.70;3.25;;;7.90;99.90;;;;;;5092357;28;20024;-70
2022/02/11 10:41:42;;;;;;;6.00;3.25;;;7.80;99.90;;;;;;5106453;28;20326;-69
2022/02/11 10:44:12;;;;;;;6.93;3.78;;;7.70;99.90;;;;;;5112493;28;20053;-70
2022/02/11 10:46:43;;;;;;;7.70;3.35;;;7.70;99.90;;;;;;5106334;28;20522;-70
2022/02/11 10:49:11;;;;;;;7.50;4.05;;;7.70;99.90;;;;;;5091903;28;20032;-70
2022/02/11 10:51:41;;;;;;;8.25;3.35;;;7.60;99.90;;;;;;5110044;28;20063;-69
2022/02/11 10:54:27;;;;;;;4.40;2.88;;;7.60;99.90;;;;;;5112472;28;20031;-69
2022/02/11 10:56:54;;;;;;;8.35;4.03;;;7.60;99.90;;;;;;5092071;28;20047;-69
2022/02/11 10:59:33;;;;;;;7.13;2.90;;;7.40;99.90;;;;;;5111598;28;20415;-70
2022/02/11 11:02:01;;;;;;;4.22;2.97;;;7.20;99.90;;;;;;5090005;28;20031;-69
2022/02/11 11:04:27;;;;;;;7.35;3.53;;;7.20;99.90;;;;;;5111433;28;20028;-70
2022/02/11 11:06:54;;;;;;;6.43;3.35;;;7.30;99.90;;;;;;5092072;28;20384;-69
2022/02/11 11:09:20;;;;;;;6.18;3.03;;;7.40;99.90;;;;;;5111237;28;20501;-69
2022/02/11 11:11:47;;;;;;;7.78;3.95;;;7.60;99.90;;;;;;5109943;28;20035;-70
2022/02/11 11:14:15;;;;;;;5.55;3.30;;;7.70;99.90;;;;;;5112017;28;20039;-69
2022/02/11 11:16:42;;;;;;;8.50;3.53;;;7.90;99.90;;;;;;5093280;28;20035;-70
2022/02/11 11:19:08;;;;;;;7.57;3.45;;;8.10;99.90;;;;;;5111154;28;20560;-70
2022/02/11 11:21:44;;;;;;;6.65;3.08;;;8.20;99.90;;;;;;5109858;28;20078;-69
2022/02/11 11:24:10;;;;;;;4.70;2.95;;;8.40;99.90;;;;;;5111729;28;20027;-69
2022/02/11 11:26:37;;;;;;;7.70;3.38;;;8.50;99.90;;;;;;5093951;28;20136;-69
2022/02/11 11:29:18;;;;;;;9.07;3.30;;;8.70;99.90;;;;;;5111157;28;20161;-69
2022/02/11 11:31:58;;;;;;;7.63;3.33;;;8.80;99.90;;;;;;5106231;28;20050;-70
2022/02/11 11:34:26;;;;;;;9.20;3.38;;;8.80;99.90;;;;;;5111635;28;20031;-70
2022/02/11 11:36:56;;;;;;;9.38;3.55;;;8.90;99.90;;;;;;5091499;28;20055;-70
2022/02/11 11:39:22;;;;;;;7.60;3.83;;;8.60;99.90;;;;;;5111229;28;20031;-70
2022/02/11 11:41:58;;;;;;;8.57;3.30;;;8.40;99.90;;;;;;5105545;28;20500;-70
2022/02/11 11:44:26;;;;;;;7.60;3.72;;;8.30;99.90;;;;;;5111216;28;20023;-70
2022/02/11 11:47:02;;;;;;;8.70;4.32;;;8.30;99.90;;;;;;5091343;28;20024;-70
2022/02/11 11:49:40;;;;;;;8.73;4.40;;;8.30;99.90;;;;;;5090905;28;20110;-70
2022/02/11 11:52:07;;;;;;;4.85;2.78;;;8.40;99.90;;;;;;5088999;28;20055;-70
2022/02/11 11:54:33;;;;;;;10.93;3.17;;;8.30;99.90;;;;;;5110701;28;20024;-70
2022/02/11 11:57:01;;;;;;;5.78;2.33;;;8.10;99.90;;;;;;5090213;28;20016;-71
2022/02/11 11:59:29;;;;;;;5.38;1.90;;;7.80;99.90;;;;;;5110539;28;20442;-70
2022/02/11 12:02:09;;;;;;;3.97;2.05;;;7.60;99.90;;;;;;5109286;28;20035;-70
2022/02/11 12:04:40;;;;;;;3.75;1.90;;;7.50;99.90;;;;;;5110693;28;20023;-70
2022/02/11 12:07:11;;;;;;;6.78;2.15;;;7.50;99.90;;;;;;5108818;28;20023;-70
2022/02/11 12:09:37;;;;;;;5.38;1.60;;;7.50;99.90;;;;;;5110579;28;20619;-70
2022/02/11 12:12:08;;;;;;;7.93;2.63;;;7.40;99.90;;;;;;5089278;28;20040;-70
2022/02/11 12:14:36;;;;;;;5.50;2.80;;;7.40;99.90;;;;;;5090681;28;20099;-70
2022/02/11 12:17:05;;;;;;;3.83;2.88;;;7.10;99.90;;;;;;5108613;28;20088;-70
2022/02/11 12:19:32;;;;;;;7.40;3.17;;;6.90;99.90;;;;;;5110513;28;20031;-70
2022/02/11 12:21:58;;;;;;;4.20;2.45;;;6.60;99.90;;;;;;5089857;28;20151;-70
2022/02/11 12:27:21;;;;;;;7.20;3.67;;;6.10;99.90;;;;;;5090492;28;20187;-70
2022/02/11 12:30:18;;;;;;;7.47;3.17;;;5.80;99.90;;;;;;5088613;28;20046;-73
2022/02/11 12:32:46;;;;;;;6.40;3.30;;;5.60;99.90;;;;;;5106515;28;20515;-70
2022/02/11 12:35:16;;;;;;;9.52;3.35;;;5.50;99.90;;;;;;5108220;28;20448;-70
2022/02/11 12:37:43;;;;;;;6.65;3.47;;;5.50;99.90;;;;;;5110215;28;20099;-70
2022/02/11 12:40:10;;;;;;;10.77;3.85;;;5.50;99.90;;;;;;5108295;28;20051;-70
2022/02/11 12:42:42;;;;;;;11.10;4.68;;;5.60;99.90;;;;;;5106506;28;20540;-70
2022/02/11 12:45:10;;;;;;;8.50;4.05;;;5.70;99.90;;;;;;5091147;28;20019;-70
2022/02/11 12:47:37;;;;;;;6.57;3.30;;;5.90;99.90;;;;;;5110003;28;20288;-70
2022/02/11 12:50:04;;;;;;;5.90;3.28;;;6.10;99.90;;;;;;5107753;28;20073;-70
2022/02/11 12:52:36;;;;;;;7.43;3.63;;;6.00;99.90;;;;;;5108654;28;20043;-70
2022/02/11 12:55:19;;;;;;;6.43;3.40;;;6.00;99.90;;;;;;5090249;28;20415;-70
2022/02/11 12:57:49;;;;;;;8.63;3.58;;;5.90;99.90;;;;;;5110036;28;20089;-70
2022/02/11 13:00:22;;;;;;;7.45;3.55;;;5.90;99.90;;;;;;5092230;28;20074;-70
2022/02/11 13:02:50;;;;;;;9.32;3.80;;;5.80;99.90;;;;;;5109944;28;20027;-71
2022/02/11 13:05:24;;;;;;;5.80;3.70;;;5.70;99.90;;;;;;5107685;28;20402;-71
2022/02/11 13:07:52;;;;;;;7.32;3.83;;;5.70;99.90;;;;;;5109911;28;20131;-70
2022/02/11 13:10:28;;;;;;;6.20;4.00;;;5.60;99.90;;;;;;5105381;28;20067;-70
2022/02/11 13:12:56;;;;;;;10.23;4.50;;;5.50;99.90;;;;;;5109845;28;20118;-70
2022/02/11 13:16:03;;;;;;;11.57;4.32;;;5.40;99.90;;;;;;5107631;28;20035;-70
2022/02/11 13:19:09;;;;;;;8.05;4.30;;;5.30;99.90;;;;;;5104081;28;20046;-70
2022/02/11 13:22:34;;;;;;;8.30;3.80;;;5.20;99.90;;;;;;5103664;28;20043;-70
2022/02/11 13:25:59;;;;;;;9.40;4.95;;;5.20;99.90;;;;;;5089463;28;20480;-70
2022/02/11 13:29:31;;;;;;;11.38;4.18;;;5.30;99.90;;;;;;5106463;28;20051;-71
2022/02/11 13:32:56;;;;;;;10.38;4.18;;;5.40;99.90;;;;;;5105631;28;20418;-70
2022/02/11 13:36:22;;;;;;;12.23;4.35;;;5.50;99.90;;;;;;5107922;28;20027;-71
2022/02/11 13:39:47;;;;;;;6.55;3.67;;;5.50;99.90;;;;;;5103657;28;20124;-70
2022/02/11 13:42:55;;;;;;;6.10;3.88;;;5.60;99.90;;;;;;5094674;28;20036;-69
2022/02/11 13:46:27;;;;;;;6.35;3.28;;;5.90;99.90;;;;;;5103412;28;20042;-69
2022/02/11 13:49:58;;;;;;;8.02;3.35;;;6.30;99.90;;;;;;5103569;28;20024;-69
2022/02/11 13:53:30;;;;;;;5.15;3.10;;;6.60;99.90;;;;;;5101779;28;20039;-69
2022/02/11 13:57:00;;;;;;;4.50;2.38;;;6.70;99.90;;;;;;5101327;28;20039;-69
2022/02/11 14:00:22;;;;;;;6.90;3.65;;;6.90;99.90;;;;;;5109121;28;20036;-68
2022/02/11 14:03:48;;;;;;;4.85;3.10;;;7.00;99.90;;;;;;5103799;28;20080;-74
2022/02/11 14:07:13;;;;;;;4.22;3.17;;;7.00;99.90;;;;;;5103525;28;20810;-70
2022/02/11 14:10:38;;;;;;;5.95;3.13;;;7.00;99.90;;;;;;5101725;28;20095;-70
2022/02/11 14:14:04;;;;;;;4.47;3.35;;;7.10;99.90;;;;;;5107391;28;20537;-71
2022/02/11 14:17:30;;;;;;;4.60;2.83;;;7.20;99.90;;;;;;5109050;28;20035;-70
2022/02/11 14:20:56;;;;;;;5.15;2.95;;;7.30;99.90;;;;;;5101056;28;20039;-70
2022/02/11 14:24:20;;;;;;;4.50;3.33;;;7.40;99.90;;;;;;5088969;28;20051;-70
2022/02/11 14:27:45;;;;;;;5.07;2.80;;;7.50;99.90;;;;;;5106251;28;20051;-70
2022/02/11 14:31:10;;;;;;;6.13;2.88;;;7.50;99.90;;;;;;5102167;28;20622;-70
2022/02/11 14:34:36;;;;;;;6.15;3.30;;;7.60;99.90;;;;;;5101239;28;20092;-70
2022/02/11 14:38:01;;;;;;;4.15;2.75;;;7.70;99.90;;;;;;5108896;28;20027;-70
2022/02/11 14:44:52;;;;;;;5.95;2.95;;;7.20;99.90;;;;;;5085501;28;20073;-70
2022/02/11 14:48:16;;;;;;;3.42;3.13;;;7.00;99.90;;;;;;5108515;28;20040;-70
2022/02/11 14:51:41;;;;;;;6.95;3.40;;;6.90;99.90;;;;;;5106338;28;20039;-69
2022/02/11 14:55:07;;;;;;;7.68;3.70;;;6.80;99.90;;;;;;5103935;28;20028;-71
2022/02/11 14:58:32;;;;;;;10.98;4.22;;;6.70;99.90;;;;;;5103098;28;20036;-70
2022/02/11 15:02:00;;;;;;;11.10;4.15;;;6.70;99.90;;;;;;5106933;28;20070;-70
2022/02/11 15:05:26;;;;;;;5.10;3.83;;;6.70;99.90;;;;;;5105932;28;20036;-70
2022/02/11 15:08:51;;;;;;;5.88;3.83;;;6.60;99.90;;;;;;5106506;28;20744;-69
2022/02/11 15:12:16;;;;;;;9.02;4.15;;;6.60;99.90;;;;;;5102905;28;20051;-70
2022/02/11 15:15:41;;;;;;;8.93;5.07;;;6.50;99.90;;;;;;5103897;28;20487;-70
2022/02/11 15:19:07;;;;;;;7.82;3.30;;;6.40;99.90;;;;;;5108454;28;20036;-70
2022/02/11 15:22:32;;;;;;;6.03;3.40;;;6.30;99.90;;;;;;5108016;28;20043;-71
2022/02/11 15:26:02;;;;;;;4.22;2.88;;;6.00;99.90;;;;;;5107221;28;20110;-70
2022/02/11 15:29:23;;;;;;;5.38;2.90;;;5.70;99.90;;;;;;5103187;28;20036;-70
2022/02/11 15:32:48;;;;;;;7.47;2.85;;;5.40;99.90;;;;;;5090867;28;20047;-71
2022/02/11 15:36:14;;;;;;;5.65;3.25;;;5.20;99.90;;;;;;5095282;28;20042;-71
2022/02/11 15:39:41;;;;;;;4.35;2.90;;;5.00;99.90;;;;;;5091714;28;20040;-70
2022/02/11 15:43:04;;;;;;;3.03;2.72;;;4.80;99.90;;;;;;5100991;28;20422;-71
2022/02/11 15:46:30;;;;;;;8.05;3.78;;;4.50;99.90;;;;;;5104126;28;20040;-71
2022/02/11 15:49:55;;;;;;;5.18;3.72;;;4.40;99.90;;;;;;5091776;28;20028;-71
2022/02/11 15:53:20;;;;;;;6.70;3.70;;;4.30;99.90;;;;;;5110268;28;20070;-71
2022/02/11 15:56:46;;;;;;;7.68;4.13;;;4.30;99.90;;;;;;5108141;28;20051;-66
2022/02/11 16:00:11;;;;;;;6.15;4.00;;;4.10;99.90;;;;;;5102843;28;20406;-68
2022/02/11 16:03:36;;;;;;;9.75;4.82;;;3.90;99.90;;;;;;5104595;28;20083;-64
2022/02/11 16:07:02;;;;;;;6.07;4.15;;;3.90;99.90;;;;;;5107037;28;20035;-64
2022/02/11 16:09:49;;;;;;;4.03;3.42;;;4.00;99.90;;;;;;5105616;28;20073;-66
2022/02/11 16:12:15;;;;;;;6.05;4.43;;;4.10;99.90;;;;;;5110352;28;20043;-76
2022/02/11 16:14:40;;;;;;;6.47;4.28;;;4.20;99.90;;;;;;5108340;28;20028;-70
2022/02/11 16:17:09;;;;;;;7.25;3.90;;;4.20;99.90;;;;;;5110079;28;20027;-68
2022/02/11 16:19:35;;;;;;;6.72;4.50;;;4.10;99.90;;;;;;5107817;28;20031;-67
2022/02/11 16:22:01;;;;;;;7.25;4.88;;;4.00;99.90;;;;;;5109974;28;20100;-64
2022/02/11 16:24:26;;;;;;;7.78;5.30;;;3.90;99.90;;;;;;5108063;28;20020;-67
2022/02/11 16:26:52;;;;;;;5.88;4.50;;;3.70;99.90;;;;;;5109175;28;20545;-68
2022/02/11 16:29:18;;;;;;;6.20;4.93;;;3.60;99.90;;;;;;5107690;28;20043;-68
2022/02/11 16:32:23;;;;;;;6.55;4.80;;;3.40;99.90;;;;;;5109290;28;20062;-68
2022/02/11 16:35:49;;;;;;;9.48;5.32;;;3.30;99.90;;;;;;5107963;28;20028;-68
2022/02/11 16:39:15;;;;;;;8.85;5.53;;;3.10;99.90;;;;;;5106406;28;20048;-66
2022/02/11 16:42:40;;;;;;;7.70;4.68;;;3.00;99.90;;;;;;5096828;28;20505;-64
2022/02/11 16:46:05;;;;;;;6.47;4.50;;;3.00;99.90;;;;;;5089411;28;20063;-67
2022/02/11 16:49:30;;;;;;;5.80;4.80;;;3.10;99.90;;;;;;5104149;28;20044;-68
2022/02/11 16:52:56;;;;;;;6.43;4.30;;;3.20;99.90;;;;;;5105186;28;20130;-67
2022/02/11 16:56:21;;;;;;;8.75;5.15;;;3.40;99.90;;;;;;5100664;28;20043;-67
2022/02/11 16:59:50;;;;;;;16.60;5.88;;;3.40;99.90;;;;;;5103700;28;20645;-67
2022/02/11 17:03:12;;;;;;;6.38;4.00;;;3.30;99.90;;;;;;5102358;28;20043;-68
2022/02/11 17:06:37;;;;;;;10.38;4.90;;;3.20;99.90;;;;;;5105189;28;20034;-67
2022/02/11 17:10:03;;;;;;;9.30;4.82;;;3.10;99.90;;;;;;5106902;28;20031;-67
2022/02/11 17:13:28;;;;;;;6.40;4.60;;;2.90;99.90;;;;;;5103293;28;20040;-67
2022/02/11 17:16:53;;;;;;;12.15;5.50;;;2.80;99.90;;;;;;5105169;28;20600;-67
2022/02/11 17:20:19;;;;;;;8.88;4.53;;;2.70;99.90;;;;;;5106615;28;20054;-66
2022/02/11 17:23:44;;;;;;;11.95;5.47;;;2.60;99.90;;;;;;5103124;28;20040;-67
2022/02/11 17:27:09;;;;;;;11.75;5.95;;;2.50;99.90;;;;;;5103863;28;20032;-66
2022/02/11 17:30:35;;;;;;;9.20;5.38;;;2.40;99.90;;;;;;5101170;28;20127;-66
2022/02/11 17:34:15;;;;;;;7.03;5.13;;;2.20;99.90;;;;;;5088096;28;20044;-67
2022/02/11 17:37:40;;;;;;;8.90;6.53;;;2.10;99.90;;;;;;5105747;28;20118;-67
2022/02/11 17:41:06;;;;;;;8.05;5.00;;;2.20;99.90;;;;;;5103271;28;20081;-67
2022/02/11 17:44:31;;;;;;;10.25;5.63;;;2.40;99.90;;;;;;5078154;28;20538;-67
2022/02/11 17:47:56;;;;;;;5.85;3.97;;;2.50;99.90;;;;;;5102729;28;20031;-67
2022/02/11 17:51:22;;;;;;;8.45;5.28;;;2.60;99.90;;;;;;5099953;28;20051;-67
2022/02/11 17:54:47;;;;;;;10.45;6.30;;;2.80;99.90;;;;;;5105437;28;20098;-67
2022/02/11 17:58:13;;;;;;;10.55;6.93;;;3.10;99.90;;;;;;5104478;28;20050;-66
2022/02/11 18:01:38;;;;;;;14.90;7.30;;;3.30;99.90;;;;;;5100494;28;20024;-67
2022/02/11 18:05:03;;;;;;;12.50;7.13;;;3.30;99.90;;;;;;5087937;28;20173;-67
2022/02/11 18:08:28;;;;;;;12.85;6.07;;;3.40;99.90;;;;;;5102522;28;20044;-67
2022/02/11 18:11:54;;;;;;;14.63;8.38;;;3.40;99.90;;;;;;5103976;28;20499;-66
2022/02/11 18:15:20;;;;;;;12.68;7.97;;;3.40;99.90;;;;;;5087663;28;20051;-66